createdAt,value
2018-02-23T00:01:41.780Z,26.00
2018-02-23T00:04:09.253Z,19.97
2018-02-23T00:06:38.653Z,20.73
2018-02-23T00:09:06.885Z,23.20
2018-02-23T00:11:34.321Z,21.67
2018-02-23T00:14:01.864Z,23.20
2018-02-23T00:16:29.313Z,25.30
2018-02-23T00:18:57.560Z,22.80
2018-02-23T00:21:25.068Z,20.23
2018-02-23T00:23:53.119Z,130.40
2018-02-23T00:26:20.557Z,50.20
2018-02-23T00:28:48.792Z,29.53
2018-02-23T00:31:16.253Z,23.33
2018-02-23T00:33:44.229Z,24.83
2018-02-23T00:36:12.005Z,24.33
2018-02-23T00:38:39.477Z,27.83
2018-02-23T00:41:08.033Z,24.00
2018-02-23T00:43:35.659Z,23.57
2018-02-23T00:46:03.116Z,24.70
2018-02-23T00:48:30.572Z,24.87
2018-02-23T00:50:58.313Z,27.07
2018-02-23T00:53:25.975Z,26.53
2018-02-23T00:55:53.692Z,25.73
2018-02-23T00:58:21.144Z,26.67
2018-02-23T01:00:48.612Z,30.23
2018-02-23T01:03:16.071Z,29.70
2018-02-23T01:05:43.533Z,27.60
2018-02-23T01:08:10.983Z,31.40
2018-02-23T01:10:38.530Z,30.95
2018-02-23T01:13:05.940Z,29.37
2018-02-23T01:15:33.750Z,26.77
2018-02-23T01:18:01.199Z,25.73
2018-02-23T01:20:28.698Z,37.53
2018-02-23T01:22:56.921Z,26.50
2018-02-23T01:25:24.575Z,29.30
2018-02-23T01:27:52.053Z,29.70
2018-02-23T01:30:19.543Z,26.03
2018-02-23T01:32:48.401Z,29.58
2018-02-23T01:35:16.138Z,30.10
2018-02-23T01:37:43.692Z,33.10
2018-02-23T01:40:12.335Z,31.05
2018-02-23T01:42:41.101Z,34.03
2018-02-23T01:45:08.984Z,32.50
2018-02-23T01:47:37.308Z,31.20
2018-02-23T01:50:04.781Z,34.70
2018-02-23T01:52:32.471Z,32.58
2018-02-23T01:55:00.320Z,33.95
2018-02-23T01:57:27.768Z,38.50
2018-02-23T01:59:55.285Z,36.40
2018-02-23T02:02:22.785Z,37.50
2018-02-23T02:04:50.237Z,32.07
2018-02-23T02:07:18.009Z,40.08
2018-02-23T02:09:45.474Z,31.92
2018-02-23T02:12:13.137Z,32.20
2018-02-23T02:14:40.590Z,37.20
2018-02-23T02:17:08.039Z,41.43
2018-02-23T02:19:35.546Z,38.70
2018-02-23T02:22:02.948Z,36.23
2018-02-23T02:24:30.585Z,41.20
2018-02-23T02:26:58.030Z,36.47
2018-02-23T02:29:25.522Z,39.10
2018-02-23T02:31:52.985Z,38.70
2018-02-23T02:34:21.076Z,39.50
2018-02-23T02:36:48.534Z,31.77
2018-02-23T02:39:16.295Z,31.83
2018-02-23T02:41:44.050Z,39.50
2018-02-23T02:44:11.552Z,33.47
2018-02-23T02:46:39.010Z,38.47
2018-02-23T02:49:06.616Z,36.72
2018-02-23T02:51:34.057Z,42.90
2018-02-23T02:54:01.523Z,38.30
2018-02-23T02:56:29.773Z,36.33
2018-02-23T02:58:57.222Z,39.70
2018-02-23T03:01:24.687Z,37.20
2018-02-23T03:03:52.225Z,32.00
2018-02-23T03:06:19.699Z,40.00
2018-02-23T03:08:47.157Z,43.13
2018-02-23T03:11:14.742Z,42.60
2018-02-23T03:13:42.376Z,44.43
2018-02-23T03:16:09.844Z,38.33
2018-02-23T03:18:37.839Z,37.75
2018-02-23T03:21:05.315Z,39.03
2018-02-23T03:23:33.564Z,37.77
2018-02-23T03:26:01.064Z,37.83
2018-02-23T03:28:28.545Z,42.92
2018-02-23T03:30:55.992Z,41.53
2018-02-23T03:33:23.594Z,45.38
2018-02-23T03:35:51.460Z,44.10
2018-02-23T03:38:18.936Z,41.13
2018-02-23T03:40:47.460Z,39.90
2018-02-23T03:43:14.937Z,43.95
2018-02-23T03:45:42.828Z,40.10
2018-02-23T03:48:12.138Z,45.12
2018-02-23T03:50:39.615Z,186.73
2018-02-23T03:53:07.832Z,109.20
2018-02-23T03:55:35.926Z,47.05
2018-02-23T03:58:03.380Z,42.45
2018-02-23T04:00:30.859Z,51.35
2018-02-23T04:02:59.101Z,37.47
2018-02-23T04:05:26.578Z,47.17
2018-02-23T04:07:54.784Z,48.08
2018-02-23T04:10:22.521Z,44.03
2018-02-23T04:12:49.966Z,42.15
2018-02-23T04:15:19.066Z,42.83
2018-02-23T04:17:46.509Z,45.30
2018-02-23T04:20:14.287Z,37.67
2018-02-23T04:22:41.739Z,43.42
2018-02-23T04:25:09.218Z,44.53
2018-02-23T04:27:38.082Z,44.78
2018-02-23T04:30:05.546Z,39.45
2018-02-23T04:32:32.990Z,46.35
2018-02-23T04:35:00.980Z,42.62
2018-02-23T04:37:28.419Z,46.53
2018-02-23T04:39:56.234Z,46.58
2018-02-23T04:42:23.813Z,42.83
2018-02-23T04:44:51.326Z,39.73
2018-02-23T04:47:19.181Z,40.60
2018-02-23T04:49:46.669Z,40.92
2018-02-23T04:52:14.124Z,41.80
2018-02-23T04:54:42.659Z,40.57
2018-02-23T04:57:10.116Z,46.67
2018-02-23T04:59:37.627Z,46.70
2018-02-23T05:02:05.381Z,49.28
2018-02-23T05:04:34.238Z,44.93
2018-02-23T05:07:01.718Z,40.90
2018-02-23T05:09:29.945Z,41.45
2018-02-23T05:11:57.420Z,48.08
2018-02-23T05:14:24.872Z,46.65
2018-02-23T05:16:52.863Z,48.08
2018-02-23T05:19:21.082Z,48.67
2018-02-23T05:21:48.621Z,44.53
2018-02-23T05:24:16.832Z,152.30
2018-02-23T05:26:44.321Z,83.90
2018-02-23T05:29:11.777Z,48.25
2018-02-23T05:31:39.528Z,48.58
2018-02-23T05:34:07.328Z,44.33
2018-02-23T05:36:35.992Z,48.60
2018-02-23T05:39:04.069Z,46.70
2018-02-23T05:41:31.551Z,43.58
2018-02-23T05:43:59.764Z,44.08
2018-02-23T05:46:27.313Z,47.58
2018-02-23T05:48:54.804Z,47.22
2018-02-23T05:51:22.481Z,44.00
2018-02-23T05:53:49.952Z,38.05
2018-02-23T05:56:18.689Z,45.03
2018-02-23T05:58:46.165Z,40.63
2018-02-23T06:01:15.141Z,37.33
2018-02-23T06:03:42.589Z,44.88
2018-02-23T06:06:10.069Z,40.10
2018-02-23T06:08:37.698Z,37.40
2018-02-23T06:11:05.347Z,40.50
2018-02-23T06:13:33.431Z,42.28
2018-02-23T06:16:07.481Z,42.20
2018-02-23T06:18:40.765Z,40.05
2018-02-23T06:21:08.288Z,40.15
2018-02-23T06:23:39.604Z,39.78
2018-02-23T06:26:08.367Z,42.95
2018-02-23T06:28:35.809Z,35.95
2018-02-23T06:31:03.320Z,44.63
2018-02-23T06:33:32.067Z,37.25
2018-02-23T06:35:59.915Z,31.37
2018-02-23T06:38:27.369Z,38.10
2018-02-23T06:40:54.996Z,36.42
2018-02-23T06:43:22.441Z,36.55
2018-02-23T06:45:49.879Z,39.42
2018-02-23T06:48:18.188Z,29.15
2018-02-23T06:50:45.897Z,37.13
2018-02-23T06:53:13.365Z,34.83
2018-02-23T06:55:44.134Z,35.60
2018-02-23T06:58:11.633Z,36.30
2018-02-23T07:00:39.107Z,37.45
2018-02-23T07:03:06.592Z,36.60
2018-02-23T07:05:34.087Z,31.65
2018-02-23T07:08:01.536Z,33.38
2018-02-23T07:10:30.165Z,37.15
2018-02-23T07:12:58.020Z,30.90
2018-02-23T07:15:25.521Z,31.90
2018-02-23T07:17:53.762Z,36.95
2018-02-23T07:20:21.270Z,33.22
2018-02-23T07:22:48.717Z,34.67
2018-02-23T07:25:16.344Z,28.90
2018-02-23T07:27:44.209Z,36.90
2018-02-23T07:30:12.675Z,31.62
2018-02-23T07:32:40.128Z,34.00
2018-02-23T07:35:08.205Z,29.05
2018-02-23T07:37:36.418Z,32.10
2018-02-23T07:40:04.400Z,31.20
2018-02-23T07:42:31.840Z,29.35
2018-02-23T07:44:59.328Z,28.45
2018-02-23T07:47:26.774Z,31.37
2018-02-23T07:49:54.373Z,26.27
2018-02-23T07:52:21.832Z,27.70
2018-02-23T07:54:49.880Z,25.27
2018-02-23T07:57:17.333Z,29.52
2018-02-23T07:59:44.784Z,27.95
2018-02-23T08:02:12.271Z,25.05
2018-02-23T08:04:40.044Z,23.90
2018-02-23T08:07:07.700Z,28.70
2018-02-23T08:09:35.170Z,19.67
2018-02-23T08:12:03.471Z,20.73
2018-02-23T08:14:30.914Z,18.33
2018-02-23T08:16:59.229Z,20.98
2018-02-23T08:19:26.680Z,23.73
2018-02-23T08:21:54.173Z,15.10
2018-02-23T08:24:21.609Z,20.90
2018-02-23T08:26:49.502Z,17.52
2018-02-23T08:29:17.000Z,26.75
2018-02-23T08:31:44.472Z,22.75
2018-02-23T08:34:12.198Z,20.47
2018-02-23T08:36:40.684Z,18.77
2018-02-23T08:39:09.261Z,18.48
2018-02-23T08:41:37.505Z,18.83
2018-02-23T08:44:05.008Z,18.90
2018-02-23T08:46:32.464Z,19.30
2018-02-23T08:49:00.121Z,17.92
2018-02-23T08:51:27.812Z,16.12
2018-02-23T08:53:55.256Z,17.27
2018-02-23T08:56:23.054Z,17.53
2018-02-23T08:58:50.543Z,19.50
2018-02-23T09:01:20.552Z,20.80
2018-02-23T09:03:47.996Z,16.83
2018-02-23T09:06:15.474Z,20.50
2018-02-23T09:08:42.921Z,22.50
2018-02-23T09:11:10.394Z,17.70
2018-02-23T09:13:38.611Z,18.03
2018-02-23T09:16:06.405Z,20.00
2018-02-23T09:18:33.852Z,18.47
2018-02-23T09:21:01.326Z,14.40
2018-02-23T09:23:28.751Z,14.23
2018-02-23T09:25:56.538Z,18.77
2018-02-23T09:28:23.974Z,18.40
2018-02-23T09:30:51.665Z,21.00
2018-02-23T09:33:19.098Z,18.80
2018-02-23T09:35:47.190Z,16.50
2018-02-23T09:38:14.624Z,17.90
2018-02-23T09:40:42.610Z,21.70
2018-02-23T09:43:10.053Z,17.30
2018-02-23T09:45:37.589Z,20.77
2018-02-23T09:48:05.600Z,17.33
2018-02-23T09:50:33.067Z,20.50
2018-02-23T09:53:00.569Z,17.10
2018-02-23T09:55:28.475Z,17.40
2018-02-23T09:57:55.949Z,18.33
2018-02-23T10:00:23.397Z,15.70
2018-02-23T10:02:51.045Z,14.20
2018-02-23T10:05:18.492Z,15.33
2018-02-23T10:07:47.037Z,18.13
2018-02-23T10:10:14.542Z,13.23
2018-02-23T10:12:42.014Z,12.57
2018-02-23T10:15:09.522Z,13.67
2018-02-23T10:17:36.994Z,18.20
2018-02-23T10:20:04.651Z,15.40
2018-02-23T10:22:32.132Z,16.47
2018-02-23T10:24:59.994Z,10.10
2018-02-23T10:27:27.632Z,11.83
2018-02-23T10:29:55.110Z,11.90
2018-02-23T10:32:22.577Z,11.20
2018-02-23T10:34:50.554Z,12.00
2018-02-23T10:37:18.102Z,14.10
2018-02-23T10:39:45.906Z,12.97
2018-02-23T10:42:13.353Z,9.83
2018-02-23T10:44:42.133Z,11.43
2018-02-23T10:47:10.408Z,13.93
2018-02-23T10:49:37.854Z,12.30
2018-02-23T10:52:06.264Z,12.77
2018-02-23T10:54:34.242Z,12.30
2018-02-23T10:57:02.356Z,7.87
2018-02-23T10:59:29.826Z,11.10
2018-02-23T11:01:57.297Z,11.83
2018-02-23T11:04:24.907Z,7.40
2018-02-23T11:06:52.703Z,10.33
2018-02-23T11:09:20.209Z,8.50
2018-02-23T11:11:47.660Z,10.93
2018-02-23T11:14:15.877Z,13.33
2018-02-23T11:16:43.413Z,11.50
2018-02-23T11:19:10.891Z,10.80
2018-02-23T11:21:38.621Z,11.30
2018-02-23T11:24:07.199Z,14.60
2018-02-23T11:26:35.831Z,13.73
2018-02-23T11:29:04.490Z,11.93
2018-02-23T11:31:32.256Z,12.83
2018-02-23T11:34:00.267Z,10.97
2018-02-23T11:36:29.114Z,13.50
2018-02-23T11:38:57.396Z,11.90
2018-02-23T11:41:25.182Z,14.57
2018-02-23T11:43:52.827Z,10.43
2018-02-23T11:46:20.289Z,14.57
2018-02-23T11:48:48.054Z,14.43
2018-02-23T11:51:15.592Z,15.77
2018-02-23T11:53:43.106Z,14.33
2018-02-23T11:56:11.726Z,14.30
2018-02-23T11:58:39.322Z,13.57
2018-02-23T12:01:06.761Z,11.80
2018-02-23T12:03:34.209Z,17.10
2018-02-23T12:06:01.710Z,13.20
2018-02-23T12:08:29.158Z,14.43
2018-02-23T12:10:57.236Z,18.13
2018-02-23T12:13:24.702Z,16.50
2018-02-23T12:15:52.332Z,18.27
2018-02-23T12:18:19.781Z,11.90
2018-02-23T12:20:47.697Z,15.87
2018-02-23T12:23:15.909Z,18.40
2018-02-23T12:25:43.394Z,12.93
2018-02-23T12:28:10.837Z,13.63
2018-02-23T12:30:38.501Z,17.47
2018-02-23T12:33:05.973Z,13.37
2018-02-23T12:35:33.731Z,16.73
2018-02-23T12:38:01.793Z,15.30
2018-02-23T12:40:30.313Z,15.40
2018-02-23T12:42:58.653Z,15.43
2018-02-23T12:45:26.177Z,15.30
2018-02-23T12:47:53.732Z,15.23
2018-02-23T12:50:21.396Z,12.80
2018-02-23T12:52:48.873Z,15.40
2018-02-23T12:55:16.821Z,14.43
2018-02-23T12:57:44.689Z,15.67
2018-02-23T13:00:12.189Z,12.93
2018-02-23T13:02:39.894Z,12.17
2018-02-23T13:05:07.508Z,17.27
2018-02-23T13:07:34.960Z,13.50
2018-02-23T13:10:02.728Z,14.90
2018-02-23T13:12:31.919Z,15.87
2018-02-23T13:15:05.313Z,13.90
2018-02-23T13:17:32.773Z,14.30
2018-02-23T13:20:00.444Z,15.37
2018-02-23T13:22:28.365Z,12.10
2018-02-23T13:24:55.922Z,12.70
2018-02-23T13:27:23.370Z,13.60
2018-02-23T13:29:50.840Z,12.03
2018-02-23T13:32:18.313Z,18.17
2018-02-23T13:34:46.193Z,14.47
2018-02-23T13:37:13.682Z,13.57
2018-02-23T13:39:43.005Z,13.37
2018-02-23T13:42:10.489Z,10.60
2018-02-23T13:44:38.002Z,14.20
2018-02-23T13:47:06.248Z,10.53
2018-02-23T13:49:33.699Z,13.27
2018-02-23T13:52:01.182Z,11.93
2018-02-23T13:54:29.996Z,13.07
2018-02-23T13:56:57.820Z,11.30
2018-02-23T13:59:25.278Z,17.03
2018-02-23T14:01:52.736Z,14.40
2018-02-23T14:04:20.695Z,11.30
2018-02-23T14:06:49.687Z,11.33
2018-02-23T14:09:17.132Z,11.00
2018-02-23T14:11:45.034Z,16.43
2018-02-23T14:14:12.572Z,12.30
2018-02-23T14:16:40.021Z,13.90
2018-02-23T14:19:07.522Z,13.10
2018-02-23T14:21:35.760Z,13.33
2018-02-23T14:24:03.209Z,13.20
2018-02-23T14:26:31.475Z,12.17
2018-02-23T14:28:59.043Z,11.87
2018-02-23T14:31:26.490Z,16.10
2018-02-23T14:33:54.564Z,12.53
2018-02-23T14:36:22.445Z,12.83
2018-02-23T14:38:49.921Z,12.10
2018-02-23T14:41:18.575Z,11.33
2018-02-23T14:43:46.049Z,11.63
2018-02-23T14:46:13.517Z,9.87
2018-02-23T14:48:53.105Z,11.97
2018-02-23T14:51:21.298Z,13.43
2018-02-23T14:53:49.010Z,11.03
2018-02-23T14:56:16.836Z,11.20
2018-02-23T14:58:44.726Z,12.67
2018-02-23T15:01:13.380Z,12.63
2018-02-23T15:03:40.846Z,11.37
2018-02-23T15:06:08.308Z,18.80
2018-02-23T15:08:35.804Z,13.50
2018-02-23T15:11:04.134Z,11.40
2018-02-23T15:13:31.582Z,11.27
2018-02-23T15:15:59.057Z,8.73
2018-02-23T15:18:26.504Z,11.93
2018-02-23T15:20:54.274Z,13.50
2018-02-23T15:23:22.492Z,14.43
2018-02-23T15:25:49.965Z,13.00
2018-02-23T15:28:17.568Z,10.67
2018-02-23T15:30:56.912Z,12.67
2018-02-23T15:33:25.584Z,10.40
2018-02-23T15:35:53.453Z,12.10
2018-02-23T15:38:21.992Z,11.87
2018-02-23T15:40:49.797Z,11.73
2018-02-23T15:43:17.245Z,11.40
2018-02-23T15:45:45.938Z,11.40
2018-02-23T15:48:26.174Z,19.30
2018-02-23T15:50:59.315Z,13.03
2018-02-23T15:53:27.971Z,12.63
2018-02-23T15:55:55.864Z,10.70
2018-02-23T15:58:27.480Z,11.80
2018-02-23T16:00:55.026Z,17.63
2018-02-23T16:03:22.403Z,13.03
2018-02-23T16:05:49.984Z,12.90
2018-02-23T16:08:17.418Z,12.40
2018-02-23T16:10:45.427Z,14.50
2018-02-23T16:13:12.877Z,15.50
2018-02-23T16:15:41.450Z,14.40
2018-02-23T16:18:09.694Z,16.33
2018-02-23T16:20:37.180Z,12.37
2018-02-23T16:23:05.418Z,17.47
2018-02-23T16:25:32.959Z,16.97
2018-02-23T16:28:00.422Z,19.47
2018-02-23T16:30:27.999Z,15.80
2018-02-23T16:32:55.458Z,16.47
2018-02-23T16:35:23.635Z,17.63
2018-02-23T16:37:51.629Z,19.90
2018-02-23T16:40:20.377Z,19.10
2018-02-23T16:42:47.820Z,19.90
2018-02-23T16:45:15.619Z,19.50
2018-02-23T16:47:43.062Z,22.13
2018-02-23T16:50:10.734Z,19.27
2018-02-23T16:52:38.208Z,18.80
2018-02-23T16:55:06.765Z,18.00
2018-02-23T16:57:35.658Z,21.50
2018-02-23T17:00:03.169Z,18.63
2018-02-23T17:02:30.736Z,20.33
2018-02-23T17:04:58.270Z,21.90
2018-02-23T17:07:26.489Z,22.13
2018-02-23T17:09:53.952Z,21.03
2018-02-23T17:12:21.483Z,20.40
2018-02-23T17:14:49.284Z,22.27
2018-02-23T17:17:16.731Z,22.27
2018-02-23T17:19:44.206Z,20.60
2018-02-23T17:22:11.672Z,21.63
2018-02-23T17:24:39.332Z,21.10
2018-02-23T17:27:06.777Z,20.63
2018-02-23T17:29:34.734Z,19.33
2018-02-23T17:32:02.390Z,20.43
2018-02-23T17:34:30.199Z,21.40
2018-02-23T17:36:58.433Z,21.10
2018-02-23T17:39:26.426Z,21.10
2018-02-23T17:41:54.645Z,24.93
2018-02-23T17:44:22.441Z,24.40
2018-02-23T17:46:49.940Z,30.97
2018-02-23T17:49:18.148Z,28.67
2018-02-23T17:51:45.629Z,27.97
2018-02-23T17:54:13.085Z,23.97
2018-02-23T17:56:40.892Z,24.80
2018-02-23T17:59:09.574Z,23.30
2018-02-23T18:01:37.815Z,23.77
2018-02-23T18:04:05.308Z,23.37
2018-02-23T18:06:33.530Z,27.83
2018-02-23T18:09:01.329Z,30.63
2018-02-23T18:11:29.552Z,23.40
2018-02-23T18:13:57.017Z,26.70
2018-02-23T18:16:24.473Z,24.93
2018-02-23T18:18:52.505Z,22.30
2018-02-23T18:21:20.385Z,29.53
2018-02-23T18:23:47.868Z,22.83
2018-02-23T18:26:15.342Z,30.10
2018-02-23T18:28:42.847Z,27.13
2018-02-23T18:31:11.298Z,26.40
2018-02-23T18:33:39.292Z,25.37
2018-02-23T18:36:07.941Z,26.10
2018-02-23T18:38:35.408Z,25.13
2018-02-23T18:41:03.249Z,47.10
2018-02-23T18:43:31.485Z,95.27
2018-02-23T18:45:59.035Z,62.93
2018-02-23T18:48:27.336Z,35.93
2018-02-23T18:50:54.905Z,29.33
2018-02-23T18:53:22.389Z,24.97
2018-02-23T18:55:50.152Z,27.07
2018-02-23T18:58:17.931Z,27.20
2018-02-23T19:00:45.376Z,29.23
2018-02-23T19:03:12.852Z,30.83
2018-02-23T19:05:41.078Z,27.50
2018-02-23T19:08:08.693Z,30.17
2018-02-23T19:10:37.615Z,25.77
2018-02-23T19:13:05.062Z,29.40
2018-02-23T19:15:32.633Z,27.37
2018-02-23T19:18:00.539Z,29.53
2018-02-23T19:20:27.990Z,28.47
2018-02-23T19:22:56.204Z,28.27
2018-02-23T19:25:24.480Z,32.80
2018-02-23T19:27:52.718Z,27.10
2018-02-23T19:30:20.539Z,26.60
2018-02-23T19:32:48.064Z,25.60
2018-02-23T19:35:16.628Z,25.67
2018-02-23T19:37:44.068Z,28.13
2018-02-23T19:40:12.159Z,29.33
2018-02-23T19:42:39.598Z,27.10
2018-02-23T19:45:07.175Z,25.20
2018-02-23T19:47:34.664Z,26.10
2018-02-23T19:50:02.281Z,25.87
2018-02-23T19:52:29.725Z,28.07
2018-02-23T19:54:57.605Z,27.63
2018-02-23T19:57:25.036Z,23.83
2018-02-23T19:59:52.894Z,26.83
2018-02-23T20:02:20.618Z,24.50
2018-02-23T20:04:48.823Z,26.90
2018-02-23T20:07:16.418Z,25.97
2018-02-23T20:09:44.131Z,29.63
2018-02-23T20:12:11.848Z,25.53
2018-02-23T20:14:39.384Z,22.43
2018-02-23T20:17:06.974Z,35.17
2018-02-23T20:19:34.423Z,26.93
2018-02-23T20:22:01.985Z,26.13
2018-02-23T20:24:29.504Z,25.00
2018-02-23T20:26:57.092Z,24.20
2018-02-23T20:29:24.537Z,24.80
2018-02-23T20:31:52.018Z,30.27
2018-02-23T20:34:20.377Z,22.87
2018-02-23T20:36:48.766Z,25.60
2018-02-23T20:39:16.778Z,23.43
2018-02-23T20:41:44.402Z,30.63
2018-02-23T20:44:12.734Z,28.67
2018-02-23T20:46:40.308Z,26.97
2018-02-23T20:49:08.308Z,25.87
2018-02-23T20:51:36.549Z,19.87
2018-02-23T20:54:04.600Z,20.43
2018-02-23T20:56:33.339Z,23.50
2018-02-23T20:59:02.023Z,21.42
2018-02-23T21:01:29.897Z,27.52
2018-02-23T21:03:57.349Z,22.37
2018-02-23T21:06:25.038Z,20.63
2018-02-23T21:08:52.527Z,21.00
2018-02-23T21:11:20.093Z,25.93
2018-02-23T21:13:47.994Z,22.48
2018-02-23T21:16:15.495Z,26.10
2018-02-23T21:18:42.932Z,22.03
2018-02-23T21:21:11.172Z,22.95
2018-02-23T21:23:38.703Z,28.50
2018-02-23T21:26:06.196Z,24.47
2018-02-23T21:28:33.675Z,20.60
2018-02-23T21:31:02.191Z,20.70
2018-02-23T21:33:29.994Z,20.77
2018-02-23T21:35:58.471Z,24.83
2018-02-23T21:38:25.927Z,24.60
2018-02-23T21:40:53.798Z,70.53
2018-02-23T21:43:21.352Z,34.28
2018-02-23T21:45:49.345Z,22.30
2018-02-23T21:48:16.815Z,26.40
2018-02-23T21:50:45.379Z,25.48
2018-02-23T21:53:13.673Z,18.35
2018-02-23T21:55:41.429Z,19.95
2018-02-23T21:58:09.740Z,18.92
2018-02-23T22:00:37.610Z,25.13
2018-02-23T22:03:05.093Z,23.70
2018-02-23T22:05:32.558Z,24.40
2018-02-23T22:08:00.035Z,25.05
2018-02-23T22:10:28.283Z,22.43
2018-02-23T22:12:55.944Z,21.70
2018-02-23T22:15:23.411Z,18.80
2018-02-23T22:17:50.933Z,24.83
2018-02-23T22:20:18.739Z,19.62
2018-02-23T22:22:46.388Z,28.20
2018-02-23T22:25:13.867Z,19.62
2018-02-23T22:27:41.319Z,20.30
2018-02-23T22:30:08.818Z,22.03
2018-02-23T22:32:36.304Z,21.57
2018-02-23T22:35:04.046Z,29.77
2018-02-23T22:37:31.846Z,19.30
2018-02-23T22:39:59.777Z,20.20
2018-02-23T22:42:27.239Z,20.98
2018-02-23T22:44:55.097Z,22.42
2018-02-23T22:47:22.533Z,24.53
2018-02-23T22:49:50.228Z,25.37
2018-02-23T22:52:17.674Z,22.98
2018-02-23T22:54:45.577Z,27.55
2018-02-23T22:57:13.049Z,21.42
2018-02-23T22:59:42.037Z,23.50
2018-02-23T23:02:09.490Z,21.57
2018-02-23T23:04:36.934Z,27.95
2018-02-23T23:07:11.354Z,24.57
2018-02-23T23:09:38.962Z,24.90
2018-02-23T23:12:06.444Z,23.58
2018-02-23T23:14:33.920Z,25.00
2018-02-23T23:17:01.374Z,27.02
2018-02-23T23:19:29.233Z,27.62
2018-02-23T23:21:56.965Z,29.90
2018-02-23T23:24:24.602Z,24.47
2018-02-23T23:26:53.483Z,23.17
2018-02-23T23:29:20.989Z,25.42
2018-02-23T23:31:48.495Z,24.55
2018-02-23T23:34:16.977Z,24.52
2018-02-23T23:36:45.761Z,27.95
2018-02-23T23:39:13.709Z,24.45
2018-02-23T23:41:41.593Z,32.92
2018-02-23T23:44:09.063Z,26.48
2018-02-23T23:46:37.358Z,30.23
2018-02-23T23:49:04.813Z,19.20
2018-02-23T23:51:32.312Z,24.25
2018-02-23T23:53:59.775Z,29.63
2018-02-23T23:56:27.550Z,31.87
2018-02-23T23:58:55.010Z,30.40
